Terminal Aerodrome Forecast
Issued by NWS Cleveland, OH

Home | Current Version | Previous Version | Text Only | Print | Product List | Glossary Off
Versions: 1 2 3 4 5 6 7 8 9 10 11 12 13 14 15 16 17 18 19 20 21

000
FTUS41 KCLE 301700
TAFYNG
TAF
KYNG 301726Z 3018/0118 22007KT P6SM SCT010 OVC040
      TEMPO 3018/3022 3SM -RA BR BKN010
     FM302200 32006KT 6SM BR VCSH BKN010 OVC025
     FM010400 35003KT 2SM BR BKN005
     FM010800 36002KT 3/4SM BR VV003
     FM011500 04004KT P6SM OVC010=

USA.gov is the U.S. government's official web portal to all federal, state and local government web resources and services.